createdAt,value
2017-08-21T00:00:06.764Z,15.70
2017-08-21T00:02:34.993Z,15.70
2017-08-21T00:05:03.153Z,15.80
2017-08-21T00:07:32.095Z,15.70
2017-08-21T00:10:00.242Z,15.70
2017-08-21T00:12:28.387Z,15.70
2017-08-21T00:14:57.352Z,15.70
2017-08-21T00:17:25.507Z,15.70
2017-08-21T00:19:53.654Z,15.70
2017-08-21T00:22:21.830Z,15.70
2017-08-21T00:24:49.974Z,15.60
2017-08-21T00:27:18.120Z,15.50
2017-08-21T00:29:46.312Z,15.50
2017-08-21T00:32:14.466Z,15.50
2017-08-21T00:34:42.614Z,15.40
2017-08-21T00:37:10.791Z,15.40
2017-08-21T00:39:38.954Z,15.30
2017-08-21T00:42:07.099Z,15.30
2017-08-21T00:44:36.052Z,15.20
2017-08-21T00:47:04.202Z,15.20
2017-08-21T00:49:32.391Z,15.20
2017-08-21T00:52:00.581Z,15.20
2017-08-21T00:54:28.759Z,15.20
2017-08-21T00:56:56.932Z,15.20
2017-08-21T00:59:25.126Z,15.20
2017-08-21T01:01:53.275Z,15.20
2017-08-21T01:04:21.417Z,15.10
2017-08-21T01:06:49.613Z,15.10
2017-08-21T01:09:17.765Z,15.10
2017-08-21T01:11:45.935Z,15.20
2017-08-21T01:14:14.121Z,15.20
2017-08-21T01:16:42.285Z,15.20
2017-08-21T01:19:10.443Z,15.20
2017-08-21T01:21:38.649Z,15.20
2017-08-21T01:24:08.081Z,15.20
2017-08-21T01:26:36.226Z,15.20
2017-08-21T01:29:04.401Z,15.20
2017-08-21T01:31:32.552Z,15.20
2017-08-21T01:34:01.481Z,15.10
2017-08-21T01:36:29.658Z,15.10
2017-08-21T01:38:57.827Z,15.20
2017-08-21T01:41:25.969Z,15.10
2017-08-21T01:43:54.143Z,15.10
2017-08-21T01:46:22.295Z,15.10
2017-08-21T01:48:50.444Z,15.00
2017-08-21T01:51:18.635Z,15.10
2017-08-21T01:53:46.794Z,15.00
2017-08-21T01:56:14.966Z,15.10
2017-08-21T01:58:43.156Z,15.00
2017-08-21T02:01:11.306Z,15.10
2017-08-21T02:03:39.475Z,15.10
2017-08-21T02:06:07.654Z,15.00
2017-08-21T02:08:35.818Z,15.10
2017-08-21T02:11:03.987Z,15.10
2017-08-21T02:13:32.159Z,15.10
2017-08-21T02:16:00.329Z,15.10
2017-08-21T02:18:28.493Z,15.00
2017-08-21T02:20:56.672Z,15.10
2017-08-21T02:23:24.844Z,15.10
2017-08-21T02:25:53.013Z,15.20
2017-08-21T02:28:21.217Z,15.20
2017-08-21T02:30:49.367Z,15.20
2017-08-21T02:33:17.534Z,15.10
2017-08-21T02:35:46.079Z,15.00
2017-08-21T02:38:32.116Z,15.00
2017-08-21T02:41:00.298Z,15.00
2017-08-21T02:43:28.466Z,14.90
2017-08-21T02:45:56.637Z,14.90
2017-08-21T02:48:24.816Z,14.80
2017-08-21T02:50:52.967Z,14.80
2017-08-21T02:53:21.902Z,14.80
2017-08-21T02:55:50.081Z,14.80
2017-08-21T02:58:18.246Z,14.90
2017-08-21T03:00:46.412Z,14.90
2017-08-21T03:03:14.609Z,14.90
2017-08-21T03:05:42.769Z,14.80
2017-08-21T03:08:10.919Z,14.90
2017-08-21T03:10:39.870Z,14.90
2017-08-21T03:13:08.102Z,14.90
2017-08-21T03:15:36.266Z,15.00
2017-08-21T03:18:04.462Z,15.00
2017-08-21T03:20:32.619Z,15.00
2017-08-21T03:23:00.768Z,15.10
2017-08-21T03:25:28.938Z,15.00
2017-08-21T03:28:24.963Z,15.10
2017-08-21T03:30:53.157Z,15.10
2017-08-21T03:33:21.375Z,15.10
2017-08-21T03:35:49.531Z,15.10
2017-08-21T03:38:17.723Z,15.10
2017-08-21T03:40:45.870Z,15.10
2017-08-21T03:43:14.055Z,15.00
2017-08-21T03:45:42.248Z,15.00
2017-08-21T03:48:10.414Z,15.00
2017-08-21T03:50:38.582Z,15.00
2017-08-21T03:53:06.773Z,15.10
2017-08-21T03:55:34.920Z,15.10
2017-08-21T03:58:03.086Z,15.10
2017-08-21T04:00:31.259Z,15.10
2017-08-21T04:02:59.406Z,15.00
2017-08-21T04:05:27.551Z,14.90
2017-08-21T04:07:55.746Z,14.80
2017-08-21T04:10:23.914Z,14.90
2017-08-21T04:12:52.059Z,14.80
2017-08-21T04:15:20.245Z,14.80
2017-08-21T04:17:48.393Z,14.70
2017-08-21T04:20:16.548Z,14.80
2017-08-21T04:22:44.740Z,14.90
2017-08-21T04:25:12.910Z,14.90
2017-08-21T04:27:42.569Z,14.90
2017-08-21T04:30:10.757Z,14.90
2017-08-21T04:32:38.921Z,14.90
2017-08-21T04:35:07.072Z,14.80
2017-08-21T04:37:35.269Z,14.80
2017-08-21T04:40:03.437Z,14.70
2017-08-21T04:42:31.601Z,14.80
2017-08-21T04:44:59.783Z,14.90
2017-08-21T04:47:27.961Z,15.00
2017-08-21T04:49:56.122Z,15.00
2017-08-21T04:52:24.299Z,15.00
2017-08-21T04:54:52.469Z,15.10
2017-08-21T04:57:20.635Z,15.10
2017-08-21T04:59:48.810Z,15.20
2017-08-21T05:02:16.969Z,15.20
2017-08-21T05:04:45.120Z,15.20
2017-08-21T05:07:13.304Z,15.20
2017-08-21T05:09:41.461Z,15.40
2017-08-21T05:12:09.633Z,15.40
2017-08-21T05:14:38.256Z,15.50
2017-08-21T05:17:06.417Z,15.50
2017-08-21T05:19:34.562Z,15.50
2017-08-21T05:22:02.761Z,15.50
2017-08-21T05:24:30.975Z,15.60
2017-08-21T05:26:59.118Z,15.60
2017-08-21T05:29:27.297Z,15.60
2017-08-21T05:31:55.451Z,15.70
2017-08-21T05:34:23.602Z,15.70
2017-08-21T05:36:51.793Z,15.60
2017-08-21T05:39:19.954Z,15.50
2017-08-21T05:41:48.103Z,15.60
2017-08-21T05:44:16.650Z,15.70
2017-08-21T05:46:44.794Z,15.80
2017-08-21T05:49:12.966Z,15.80
2017-08-21T05:51:41.132Z,15.70
2017-08-21T05:54:09.302Z,15.80
2017-08-21T05:56:37.469Z,15.80
2017-08-21T05:59:05.673Z,15.90
2017-08-21T06:01:33.859Z,15.90
2017-08-21T06:04:02.134Z,16.00
2017-08-21T06:06:30.308Z,16.00
2017-08-21T06:08:58.454Z,15.90
2017-08-21T06:11:26.624Z,15.90
2017-08-21T06:13:54.809Z,16.00
2017-08-21T06:16:22.979Z,16.20
2017-08-21T06:18:51.134Z,16.30
2017-08-21T06:21:19.328Z,16.30
2017-08-21T06:23:47.489Z,16.20
2017-08-21T06:26:15.634Z,16.30
2017-08-21T06:28:43.837Z,16.40
2017-08-21T06:31:11.986Z,16.60
2017-08-21T06:33:40.158Z,16.80
2017-08-21T06:36:08.329Z,16.90
2017-08-21T06:38:36.798Z,17.10
2017-08-21T06:41:04.960Z,17.10
2017-08-21T06:43:33.152Z,17.20
2017-08-21T06:46:01.297Z,17.20
2017-08-21T06:48:29.470Z,17.40
2017-08-21T06:50:57.662Z,17.50
2017-08-21T06:53:25.817Z,17.70
2017-08-21T06:55:53.990Z,17.80
2017-08-21T06:58:22.182Z,18.10
2017-08-21T07:00:50.339Z,18.20
2017-08-21T07:03:18.514Z,18.40
2017-08-21T07:05:46.711Z,18.40
2017-08-21T07:08:14.855Z,18.50
2017-08-21T07:10:43.002Z,18.80
2017-08-21T07:13:11.181Z,19.00
2017-08-21T07:15:39.326Z,19.10
2017-08-21T07:18:07.472Z,19.20
2017-08-21T07:20:35.672Z,19.20
2017-08-21T07:23:03.837Z,19.10
2017-08-21T07:25:32.003Z,19.20
2017-08-21T07:28:00.187Z,19.50
2017-08-21T07:30:28.330Z,19.50
2017-08-21T07:32:56.474Z,19.70
2017-08-21T07:35:24.654Z,19.60
2017-08-21T07:37:53.567Z,19.70
2017-08-21T07:40:21.714Z,19.70
2017-08-21T07:42:49.915Z,19.70
2017-08-21T07:45:18.068Z,19.60
2017-08-21T07:47:46.212Z,19.60
2017-08-21T07:50:14.744Z,19.80
2017-08-21T07:52:42.905Z,20.00
2017-08-21T07:55:11.074Z,20.30
2017-08-21T07:57:39.244Z,20.50
2017-08-21T08:00:07.422Z,20.80
2017-08-21T08:02:35.579Z,21.00
2017-08-21T08:05:03.762Z,21.10
2017-08-21T08:07:31.929Z,21.30
2017-08-21T08:10:00.090Z,21.10
2017-08-21T08:12:28.287Z,20.90
2017-08-21T08:14:56.435Z,20.80
2017-08-21T08:17:24.608Z,20.50
2017-08-21T08:19:52.827Z,20.30
2017-08-21T08:22:20.997Z,20.20
2017-08-21T08:24:49.165Z,20.20
2017-08-21T08:27:17.344Z,20.20
2017-08-21T08:29:45.514Z,20.20
2017-08-21T08:32:13.692Z,20.20
2017-08-21T08:34:41.869Z,20.30
2017-08-21T08:37:10.042Z,20.40
2017-08-21T08:39:38.219Z,20.40
2017-08-21T08:42:06.410Z,21.30
2017-08-21T08:44:34.585Z,23.00
2017-08-21T08:47:02.751Z,24.60
2017-08-21T08:49:30.934Z,24.80
2017-08-21T08:51:59.102Z,23.90
2017-08-21T08:54:27.265Z,23.20
2017-08-21T08:56:55.456Z,22.60
2017-08-21T08:59:23.627Z,22.50
2017-08-21T09:01:51.790Z,22.60
2017-08-21T09:04:19.980Z,22.30
2017-08-21T09:06:48.131Z,21.80
2017-08-21T09:09:16.287Z,21.30
2017-08-21T09:11:44.493Z,20.70
2017-08-21T09:14:12.256Z,20.50
2017-08-21T09:16:40.423Z,20.60
2017-08-21T09:19:08.628Z,20.70
2017-08-21T09:21:36.780Z,20.90
2017-08-21T09:24:04.949Z,20.90
2017-08-21T09:26:33.135Z,21.00
2017-08-21T09:29:01.287Z,20.80
2017-08-21T09:31:29.466Z,20.70
2017-08-21T09:33:57.647Z,20.40
2017-08-21T09:36:25.817Z,20.30
2017-08-21T09:38:53.993Z,20.50
2017-08-21T09:41:21.742Z,20.60
2017-08-21T09:43:50.198Z,20.50
2017-08-21T09:46:18.372Z,20.30
2017-08-21T09:48:46.547Z,20.20
2017-08-21T09:51:14.711Z,20.40
2017-08-21T09:53:42.882Z,20.30
2017-08-21T09:56:11.079Z,20.00
2017-08-21T09:58:39.255Z,19.80
2017-08-21T10:01:07.405Z,19.60
2017-08-21T10:03:35.607Z,19.40
2017-08-21T10:06:03.774Z,19.60
2017-08-21T10:08:31.941Z,20.10
2017-08-21T10:11:00.133Z,20.40
2017-08-21T10:13:28.297Z,20.70
2017-08-21T10:15:56.443Z,21.10
2017-08-21T10:18:24.955Z,21.30
2017-08-21T10:20:53.104Z,21.80
2017-08-21T10:23:21.265Z,22.50
2017-08-21T10:25:49.461Z,23.70
2017-08-21T10:28:17.630Z,25.40
2017-08-21T10:30:45.824Z,25.90
2017-08-21T10:33:13.999Z,25.70
2017-08-21T10:35:42.173Z,25.30
2017-08-21T10:38:10.341Z,25.10
2017-08-21T10:40:38.530Z,25.20
2017-08-21T10:43:06.677Z,25.00
2017-08-21T10:45:34.823Z,25.00
2017-08-21T10:48:03.017Z,25.10
2017-08-21T10:50:31.170Z,24.70
2017-08-21T10:52:59.339Z,24.40
2017-08-21T10:55:27.531Z,24.30
2017-08-21T10:57:55.700Z,24.20
2017-08-21T11:00:23.862Z,24.20
2017-08-21T11:02:52.031Z,24.00
2017-08-21T11:05:20.220Z,23.90
2017-08-21T11:07:48.374Z,24.00
2017-08-21T11:10:16.603Z,24.10
2017-08-21T11:12:44.755Z,24.60
2017-08-21T11:15:12.925Z,25.80
2017-08-21T11:17:41.128Z,28.10
2017-08-21T11:20:09.300Z,30.30
2017-08-21T11:22:37.446Z,31.10
2017-08-21T11:25:05.629Z,31.50
2017-08-21T11:27:33.779Z,31.70
2017-08-21T11:30:01.951Z,31.40
2017-08-21T11:32:30.131Z,32.10
2017-08-21T11:34:58.275Z,32.70
2017-08-21T11:37:26.422Z,32.70
2017-08-21T11:39:54.623Z,33.00
2017-08-21T11:42:23.413Z,31.60
2017-08-21T11:44:51.562Z,29.70
2017-08-21T11:47:19.735Z,28.10
2017-08-21T11:49:47.897Z,27.20
2017-08-21T11:52:16.042Z,26.70
2017-08-21T11:54:44.217Z,27.40
2017-08-21T11:57:12.385Z,28.10
2017-08-21T11:59:40.566Z,28.20
2017-08-21T12:02:08.751Z,27.90
2017-08-21T12:04:36.899Z,27.50
2017-08-21T12:07:05.061Z,28.60
2017-08-21T12:09:33.258Z,28.80
2017-08-21T12:12:01.417Z,27.70
2017-08-21T12:14:29.593Z,26.20
2017-08-21T12:16:57.774Z,25.20
2017-08-21T12:19:25.927Z,24.70
2017-08-21T12:21:54.117Z,25.00
2017-08-21T12:24:22.300Z,25.50
2017-08-21T12:26:50.455Z,26.40
2017-08-21T12:29:18.626Z,27.50
2017-08-21T12:31:46.811Z,28.00
2017-08-21T12:34:14.970Z,27.70
2017-08-21T12:36:43.136Z,27.10
2017-08-21T12:39:11.310Z,26.70
2017-08-21T12:41:39.454Z,26.40
2017-08-21T12:44:07.659Z,26.00
2017-08-21T12:46:35.885Z,25.40
2017-08-21T12:49:04.058Z,25.00
2017-08-21T12:51:32.230Z,24.50
2017-08-21T12:54:00.418Z,24.10
2017-08-21T12:56:28.566Z,23.70
2017-08-21T12:58:56.711Z,23.70
2017-08-21T13:01:24.901Z,23.90
2017-08-21T13:03:53.064Z,24.30
2017-08-21T13:06:21.211Z,24.60
2017-08-21T13:08:49.382Z,24.80
2017-08-21T13:11:17.551Z,24.80
2017-08-21T13:13:45.712Z,24.60
2017-08-21T13:16:13.904Z,24.60
2017-08-21T13:18:42.050Z,24.40
2017-08-21T13:21:10.210Z,24.20
2017-08-21T13:23:38.383Z,24.10
2017-08-21T13:26:06.532Z,24.10
2017-08-21T13:28:34.678Z,24.30
2017-08-21T13:31:02.884Z,24.30
2017-08-21T13:33:31.049Z,24.30
2017-08-21T13:35:59.215Z,24.30
2017-08-21T13:38:27.400Z,24.40
2017-08-21T13:40:55.571Z,24.50
2017-08-21T13:43:23.737Z,24.50
2017-08-21T13:45:51.945Z,24.70
2017-08-21T13:48:20.117Z,24.80
2017-08-21T13:50:48.265Z,24.70
2017-08-21T13:53:16.454Z,24.60
2017-08-21T13:55:44.600Z,24.60
2017-08-21T13:58:12.766Z,24.50
2017-08-21T14:00:40.943Z,24.70
2017-08-21T14:03:09.112Z,24.60
2017-08-21T14:05:37.286Z,24.30
2017-08-21T14:08:05.482Z,24.00
2017-08-21T14:10:33.626Z,23.90
2017-08-21T14:13:01.790Z,23.90
2017-08-21T14:15:30.060Z,23.70
2017-08-21T14:17:58.232Z,23.70
2017-08-21T14:20:26.456Z,23.70
2017-08-21T14:22:54.632Z,23.40
2017-08-21T14:25:22.817Z,23.10
2017-08-21T14:27:50.970Z,22.90
2017-08-21T14:30:19.143Z,22.70
2017-08-21T14:32:47.314Z,22.60
2017-08-21T14:35:15.484Z,22.60
2017-08-21T14:37:43.677Z,22.40
2017-08-21T14:40:11.821Z,22.50
2017-08-21T14:42:39.989Z,22.70
2017-08-21T14:47:45.847Z,22.70
2017-08-21T14:50:14.048Z,22.80
2017-08-21T14:52:42.195Z,22.60
2017-08-21T14:55:10.349Z,22.60
2017-08-21T14:57:38.544Z,22.60
2017-08-21T15:00:06.721Z,22.70
2017-08-21T15:02:34.898Z,22.70
2017-08-21T15:05:03.070Z,22.70
2017-08-21T15:07:31.249Z,22.60
2017-08-21T15:09:59.398Z,22.50
2017-08-21T15:12:27.577Z,22.30
2017-08-21T15:14:55.746Z,22.20
2017-08-21T15:17:23.919Z,22.20
2017-08-21T15:19:52.094Z,22.00
2017-08-21T15:22:20.241Z,21.80
2017-08-21T15:24:48.441Z,21.80
2017-08-21T15:27:16.637Z,21.80
2017-08-21T15:29:44.802Z,21.80
2017-08-21T15:32:12.970Z,21.90
2017-08-21T15:34:41.194Z,21.90
2017-08-21T15:37:09.351Z,21.80
2017-08-21T15:39:37.521Z,21.80
2017-08-21T15:42:05.697Z,21.70
2017-08-21T15:44:33.841Z,21.60
2017-08-21T15:47:02.013Z,21.50
2017-08-21T15:49:30.201Z,21.30
2017-08-21T15:51:58.369Z,21.30
2017-08-21T15:54:26.519Z,21.40
2017-08-21T15:56:54.714Z,21.40
2017-08-21T15:59:22.862Z,21.40
2017-08-21T16:01:51.034Z,21.50
2017-08-21T16:04:19.975Z,21.30
2017-08-21T16:06:48.126Z,21.30
2017-08-21T16:09:16.280Z,21.30
2017-08-21T16:11:44.469Z,21.20
2017-08-21T16:14:12.616Z,21.20
2017-08-21T16:16:40.759Z,21.30
2017-08-21T16:19:08.961Z,21.20
2017-08-21T16:21:37.107Z,21.20
2017-08-21T16:24:05.262Z,21.20
2017-08-21T16:26:33.442Z,21.20
2017-08-21T16:29:01.586Z,21.20
2017-08-21T16:31:29.784Z,21.20
2017-08-21T16:33:57.982Z,21.20
2017-08-21T16:36:26.141Z,21.10
2017-08-21T16:38:54.284Z,21.20
2017-08-21T16:41:22.478Z,21.20
2017-08-21T16:43:50.641Z,21.10
2017-08-21T16:46:18.820Z,21.00
2017-08-21T16:48:47.008Z,20.80
2017-08-21T16:51:15.173Z,20.60
2017-08-21T16:53:43.337Z,20.50
2017-08-21T16:56:11.536Z,20.40
2017-08-21T16:58:39.709Z,20.30
2017-08-21T17:01:07.891Z,20.30
2017-08-21T17:03:36.121Z,20.30
2017-08-21T17:06:04.289Z,20.30
2017-08-21T17:08:32.452Z,20.30
2017-08-21T17:11:00.627Z,20.20
2017-08-21T17:13:28.770Z,20.20
2017-08-21T17:15:56.916Z,20.20
2017-08-21T17:18:25.116Z,20.10
2017-08-21T17:20:53.301Z,20.00
2017-08-21T17:23:21.454Z,20.00
2017-08-21T17:25:49.631Z,20.00
2017-08-21T17:28:17.794Z,19.80
2017-08-21T17:30:45.962Z,19.70
2017-08-21T17:33:14.176Z,19.60
2017-08-21T17:35:42.360Z,19.50
2017-08-21T17:38:10.531Z,19.50
2017-08-21T17:40:38.710Z,19.50
2017-08-21T17:43:06.881Z,19.40
2017-08-21T17:45:35.033Z,19.40
2017-08-21T17:48:03.235Z,19.40
2017-08-21T17:50:31.414Z,19.30
2017-08-21T17:52:59.577Z,19.20
2017-08-21T17:55:27.756Z,19.20
2017-08-21T17:57:55.906Z,19.10
2017-08-21T18:00:24.069Z,19.00
2017-08-21T18:02:52.268Z,18.90
2017-08-21T18:05:20.420Z,18.90
2017-08-21T18:07:48.568Z,19.00
2017-08-21T18:10:16.757Z,18.90
2017-08-21T18:12:44.933Z,18.80
2017-08-21T18:15:13.078Z,18.70
2017-08-21T18:17:41.249Z,18.60
2017-08-21T18:20:09.414Z,18.50
2017-08-21T18:22:37.581Z,18.40
2017-08-21T18:25:05.763Z,18.40
2017-08-21T18:27:33.939Z,18.40
2017-08-21T18:30:02.119Z,18.40
2017-08-21T18:32:30.630Z,18.40
2017-08-21T18:34:58.800Z,18.20
2017-08-21T18:37:26.950Z,18.20
2017-08-21T18:39:55.138Z,18.30
2017-08-21T18:42:23.283Z,18.30
2017-08-21T18:44:51.438Z,18.20
2017-08-21T18:47:19.622Z,18.30
2017-08-21T18:49:47.790Z,18.20
2017-08-21T18:52:15.954Z,18.10
2017-08-21T18:54:44.126Z,18.10
2017-08-21T18:57:12.279Z,18.00
2017-08-21T18:59:40.457Z,18.00
2017-08-21T19:02:08.666Z,18.00
2017-08-21T19:04:36.817Z,17.90
2017-08-21T19:07:04.989Z,17.90
2017-08-21T19:09:33.162Z,17.80
2017-08-21T19:12:01.342Z,17.80
2017-08-21T19:14:29.521Z,17.70
2017-08-21T19:16:57.718Z,17.60
2017-08-21T19:19:25.866Z,17.70
2017-08-21T19:21:54.015Z,17.60
2017-08-21T19:24:22.220Z,17.70
2017-08-21T19:26:50.366Z,17.60
2017-08-21T19:29:18.511Z,17.50
2017-08-21T19:31:46.696Z,17.50
2017-08-21T19:34:14.920Z,17.50
2017-08-21T19:36:43.085Z,17.50
2017-08-21T19:39:11.270Z,17.50
2017-08-21T19:41:39.443Z,17.50
2017-08-21T19:44:07.592Z,17.50
2017-08-21T19:46:35.766Z,17.50
2017-08-21T19:49:03.935Z,17.50
2017-08-21T19:51:32.105Z,17.40
2017-08-21T19:54:00.276Z,17.30
2017-08-21T19:56:28.756Z,17.30
2017-08-21T19:58:56.903Z,17.40
2017-08-21T20:01:25.103Z,17.30
2017-08-21T20:03:53.270Z,17.30
2017-08-21T20:06:21.434Z,17.30
2017-08-21T20:08:49.606Z,17.30
2017-08-21T20:11:17.787Z,17.30
2017-08-21T20:13:45.931Z,17.30
2017-08-21T20:16:14.106Z,17.20
2017-08-21T20:18:42.248Z,17.20
2017-08-21T20:21:10.415Z,17.10
2017-08-21T20:23:38.609Z,17.10
2017-08-21T20:26:06.762Z,17.00
2017-08-21T20:28:34.910Z,17.00
2017-08-21T20:31:03.099Z,17.00
2017-08-21T20:33:31.242Z,16.90
2017-08-21T20:35:59.394Z,16.90
2017-08-21T20:38:27.572Z,16.80
2017-08-21T20:40:55.727Z,16.70
2017-08-21T20:43:23.884Z,16.70
2017-08-21T20:45:52.064Z,16.70
2017-08-21T20:48:20.251Z,16.60
2017-08-21T20:50:48.419Z,16.60
2017-08-21T20:53:16.609Z,16.60
2017-08-21T20:55:44.763Z,16.50
2017-08-21T20:58:12.924Z,16.40
2017-08-21T21:00:41.095Z,16.50
2017-08-21T21:03:09.261Z,16.50
2017-08-21T21:05:37.412Z,16.50
2017-08-21T21:08:05.606Z,16.40
2017-08-21T21:10:33.760Z,16.50
2017-08-21T21:13:01.930Z,16.40
2017-08-21T21:15:30.129Z,16.40
2017-08-21T21:17:58.277Z,16.40
2017-08-21T21:20:26.443Z,16.40
2017-08-21T21:22:54.643Z,16.40
2017-08-21T21:25:22.795Z,16.40
2017-08-21T21:27:50.946Z,16.40
2017-08-21T21:30:19.119Z,16.30
2017-08-21T21:32:47.293Z,16.30
2017-08-21T21:35:15.442Z,16.30
2017-08-21T21:37:43.617Z,16.30
2017-08-21T21:40:11.764Z,16.30
2017-08-21T21:42:39.935Z,16.30
2017-08-21T21:45:08.107Z,16.20
2017-08-21T21:47:36.262Z,16.30
2017-08-21T21:50:04.419Z,16.30
2017-08-21T21:52:32.613Z,16.30
2017-08-21T21:55:00.789Z,16.30
2017-08-21T21:57:28.938Z,16.30
2017-08-21T21:59:57.116Z,16.30
2017-08-21T22:02:25.292Z,16.20
2017-08-21T22:04:53.439Z,16.20
2017-08-21T22:07:21.668Z,16.20
2017-08-21T22:09:49.834Z,16.20
2017-08-21T22:12:17.997Z,16.20
2017-08-21T22:14:46.432Z,16.10
2017-08-21T22:17:14.596Z,16.10
2017-08-21T22:19:42.741Z,16.10
2017-08-21T22:22:10.916Z,16.00
2017-08-21T22:24:39.082Z,16.00
2017-08-21T22:27:07.256Z,16.00
2017-08-21T22:29:35.434Z,16.00
2017-08-21T22:32:03.591Z,16.00
2017-08-21T22:34:31.744Z,16.00
2017-08-21T22:36:59.934Z,16.00
2017-08-21T22:39:28.090Z,16.00
2017-08-21T22:41:56.251Z,16.00
2017-08-21T22:44:24.428Z,16.00
2017-08-21T22:46:52.575Z,16.00
2017-08-21T22:49:20.745Z,16.00
2017-08-21T22:51:48.932Z,15.90
2017-08-21T22:54:17.082Z,15.90
2017-08-21T22:56:45.231Z,15.90
2017-08-21T22:59:13.421Z,15.90
2017-08-21T23:01:41.567Z,15.90
2017-08-21T23:04:09.712Z,15.90
2017-08-21T23:06:37.901Z,15.90
2017-08-21T23:09:06.068Z,15.80
2017-08-21T23:11:34.230Z,15.80
2017-08-21T23:14:02.403Z,15.90
2017-08-21T23:16:30.583Z,15.90
2017-08-21T23:18:58.732Z,15.90
2017-08-21T23:21:26.905Z,15.90
2017-08-21T23:23:55.047Z,15.90
2017-08-21T23:26:23.236Z,15.90
2017-08-21T23:28:51.429Z,15.90
2017-08-21T23:31:19.610Z,15.80
2017-08-21T23:33:47.759Z,15.70
2017-08-21T23:36:15.956Z,15.70
2017-08-21T23:38:44.121Z,15.70
2017-08-21T23:41:12.269Z,15.70
2017-08-21T23:43:40.443Z,15.70
2017-08-21T23:46:08.591Z,15.60
2017-08-21T23:48:36.765Z,15.60
2017-08-21T23:51:04.969Z,15.60
2017-08-21T23:53:33.135Z,15.50
2017-08-21T23:56:01.286Z,15.60
2017-08-21T23:58:29.458Z,15.50
